createdAt,value
2018-10-01T00:02:22.523Z,10.20
2018-10-01T00:04:50.385Z,5.73
2018-10-01T00:07:18.323Z,6.70
2018-10-01T00:09:46.202Z,5.23
2018-10-01T00:12:14.160Z,8.43
2018-10-01T00:14:42.077Z,6.67
2018-10-01T00:17:09.971Z,6.13
2018-10-01T00:19:43.390Z,6.97
2018-10-01T00:22:16.651Z,13.27
2018-10-01T00:24:44.599Z,10.80
2018-10-01T00:27:12.515Z,11.27
2018-10-01T00:29:40.394Z,11.77
2018-10-01T00:32:08.644Z,11.03
2018-10-01T00:34:36.517Z,10.27
2018-10-01T00:37:04.619Z,14.93
2018-10-01T00:39:32.592Z,9.80
2018-10-01T00:42:00.566Z,11.20
2018-10-01T00:44:28.432Z,10.53
2018-10-01T00:46:56.380Z,7.80
2018-10-01T00:49:24.250Z,10.80
2018-10-01T00:51:55.446Z,8.70
2018-10-01T00:54:23.307Z,12.67
2018-10-01T00:56:51.179Z,12.30
2018-10-01T00:59:19.091Z,8.47
2018-10-01T01:01:46.955Z,7.83
2018-10-01T01:04:14.830Z,6.50
2018-10-01T01:06:42.798Z,9.87
2018-10-01T01:09:10.698Z,10.70
2018-10-01T01:11:38.563Z,10.57
2018-10-01T01:14:06.454Z,6.23
2018-10-01T01:16:34.345Z,10.70
2018-10-01T01:19:02.246Z,8.53
2018-10-01T01:21:30.186Z,9.90
2018-10-01T01:23:58.094Z,9.77
2018-10-01T01:26:26.094Z,11.13
2018-10-01T01:28:54.153Z,11.23
2018-10-01T01:31:22.015Z,9.90
2018-10-01T01:33:49.980Z,11.43
2018-10-01T01:36:17.934Z,8.90
2018-10-01T01:38:45.819Z,10.97
2018-10-01T01:41:15.092Z,9.27
2018-10-01T01:43:42.966Z,8.77
2018-10-01T01:46:10.934Z,9.33
2018-10-01T01:48:38.802Z,9.97
2018-10-01T01:51:06.691Z,12.07
2018-10-01T01:56:20.932Z,13.67
2018-10-01T01:58:49.144Z,9.93
2018-10-01T02:01:17.044Z,7.13
2018-10-01T02:03:44.907Z,14.17
2018-10-01T02:06:12.819Z,10.53
2018-10-01T02:08:40.690Z,12.33
2018-10-01T02:11:08.571Z,10.37
2018-10-01T02:13:36.530Z,14.13
2018-10-01T02:16:04.438Z,10.97
2018-10-01T02:18:32.327Z,8.63
2018-10-01T02:21:00.248Z,8.90
2018-10-01T02:23:28.175Z,10.07
2018-10-01T02:25:56.170Z,11.70
2018-10-01T02:28:24.048Z,12.67
2018-10-01T02:30:52.075Z,12.33
2018-10-01T02:33:20.070Z,9.40
2018-10-01T02:35:47.941Z,8.40
2018-10-01T02:38:15.902Z,15.07
2018-10-01T02:40:43.889Z,9.00
2018-10-01T02:43:11.824Z,8.57
2018-10-01T02:45:39.690Z,13.00
2018-10-01T02:48:07.595Z,10.37
2018-10-01T02:50:35.984Z,12.10
2018-10-01T02:54:06.712Z,11.13
2018-10-01T02:56:35.700Z,16.90
2018-10-01T02:59:03.563Z,11.57
2018-10-01T03:01:31.635Z,12.23
2018-10-01T03:03:59.507Z,9.57
2018-10-01T03:06:27.451Z,11.20
2018-10-01T03:08:55.318Z,11.40
2018-10-01T03:11:23.213Z,11.07
2018-10-01T03:13:51.130Z,10.17
2018-10-01T03:16:18.994Z,16.40
2018-10-01T03:18:46.914Z,13.93
2018-10-01T03:21:14.893Z,15.27
2018-10-01T03:23:42.670Z,12.17
2018-10-01T03:26:10.571Z,11.83
2018-10-01T03:28:38.488Z,14.43
2018-10-01T03:31:06.407Z,12.87
2018-10-01T03:33:34.351Z,13.47
2018-10-01T03:36:02.241Z,12.47
2018-10-01T03:38:30.107Z,16.07
2018-10-01T03:40:59.004Z,16.30
2018-10-01T03:43:26.899Z,18.47
2018-10-01T03:45:54.852Z,15.03
2018-10-01T03:48:22.843Z,17.23
2018-10-01T03:50:50.857Z,14.90
2018-10-01T03:53:18.770Z,19.73
2018-10-01T03:55:46.651Z,20.63
2018-10-01T03:58:14.521Z,20.20
2018-10-01T04:00:42.383Z,24.23
2018-10-01T04:03:10.393Z,21.60
2018-10-01T04:05:50.474Z,19.97
2018-10-01T04:08:18.383Z,22.57
2018-10-01T04:10:46.331Z,22.90
2018-10-01T04:13:14.243Z,21.47
2018-10-01T04:15:42.134Z,19.17
2018-10-01T04:18:10.016Z,21.70
2018-10-01T04:20:37.898Z,20.80
2018-10-01T04:23:05.854Z,17.73
2018-10-01T04:25:33.735Z,20.90
2018-10-01T04:28:01.616Z,18.17
2018-10-01T04:30:29.557Z,21.43
2018-10-01T04:32:57.474Z,14.90
2018-10-01T04:35:25.412Z,15.80
2018-10-01T04:37:53.315Z,20.47
2018-10-01T04:40:21.242Z,14.47
2018-10-01T04:42:50.098Z,15.97
2018-10-01T04:45:17.969Z,16.87
2018-10-01T04:47:45.890Z,14.37
2018-10-01T04:50:13.890Z,14.83
2018-10-01T04:52:43.131Z,14.60
2018-10-01T04:55:18.202Z,18.43
2018-10-01T04:57:46.088Z,23.80
2018-10-01T05:02:59.946Z,18.50
2018-10-01T05:05:27.810Z,17.47
2018-10-01T05:07:55.679Z,16.73
2018-10-01T05:10:23.636Z,15.67
2018-10-01T05:12:51.482Z,18.23
2018-10-01T05:15:20.663Z,17.10
2018-10-01T05:17:48.523Z,20.23
2018-10-01T05:20:16.411Z,16.10
2018-10-01T05:22:44.364Z,19.10
2018-10-01T05:25:12.267Z,23.97
2018-10-01T05:27:41.370Z,40.73
2018-10-01T05:30:09.267Z,27.73
2018-10-01T05:35:24.091Z,20.87
2018-10-01T05:37:52.182Z,19.20
2018-10-01T05:40:20.127Z,22.90
2018-10-01T05:42:48.094Z,19.47
2018-10-01T05:45:15.978Z,18.37
2018-10-01T05:47:43.858Z,20.77
2018-10-01T05:50:11.735Z,18.63
2018-10-01T05:52:39.674Z,21.97
2018-10-01T05:55:07.555Z,18.27
2018-10-01T05:57:35.489Z,13.30
2018-10-01T06:00:03.396Z,15.87
2018-10-01T06:02:31.426Z,12.43
2018-10-01T06:04:59.315Z,10.93
2018-10-01T06:07:27.182Z,11.50
2018-10-01T06:09:55.083Z,10.53
2018-10-01T06:12:23.000Z,16.20
2018-10-01T06:14:50.899Z,10.97
2018-10-01T06:17:18.766Z,18.30
2018-10-01T06:19:46.719Z,80.93
2018-10-01T06:22:14.608Z,18.07
2018-10-01T06:24:42.547Z,10.90
2018-10-01T06:27:10.523Z,13.17
2018-10-01T06:29:39.507Z,12.77
2018-10-01T06:32:07.479Z,13.77
2018-10-01T06:34:35.359Z,12.77
2018-10-01T06:37:03.320Z,10.17
2018-10-01T06:39:31.411Z,13.47
2018-10-01T06:41:59.456Z,15.63
2018-10-01T06:44:27.318Z,39.77
2018-10-01T06:46:55.280Z,19.47
2018-10-01T06:49:23.267Z,11.90
2018-10-01T06:51:54.323Z,14.53
2018-10-01T06:54:22.322Z,8.00
2018-10-01T06:56:50.211Z,11.73
2018-10-01T06:59:18.087Z,10.57
2018-10-01T07:04:32.503Z,10.13
2018-10-01T07:07:00.501Z,11.10
2018-10-01T07:09:28.427Z,13.23
2018-10-01T07:11:56.282Z,12.07
2018-10-01T07:14:24.190Z,11.90
2018-10-01T07:16:52.190Z,12.83
2018-10-01T07:19:20.018Z,8.40
2018-10-01T07:21:47.952Z,13.17
2018-10-01T07:24:15.820Z,13.27
2018-10-01T07:26:43.699Z,11.93
2018-10-01T07:29:11.563Z,5.90
2018-10-01T07:31:39.535Z,8.23
2018-10-01T07:34:07.527Z,7.13
2018-10-01T07:36:35.403Z,7.20
2018-10-01T07:39:04.858Z,6.57
2018-10-01T07:41:32.712Z,8.17
2018-10-01T07:44:00.590Z,5.87
2018-10-01T07:46:28.610Z,8.07
2018-10-01T07:48:56.479Z,8.37
2018-10-01T07:51:24.384Z,11.77
2018-10-01T07:56:27.123Z,10.30
2018-10-01T07:58:55.019Z,14.10
2018-10-01T08:01:22.900Z,14.33
2018-10-01T08:03:50.810Z,13.93
2018-10-01T08:06:18.715Z,20.37
2018-10-01T08:08:46.579Z,19.77
2018-10-01T08:11:14.477Z,16.73
2018-10-01T08:13:42.359Z,18.53
2018-10-01T08:16:11.214Z,15.87
2018-10-01T08:18:39.099Z,12.67
2018-10-01T08:21:07.003Z,15.57
2018-10-01T08:23:34.937Z,17.37
2018-10-01T08:26:02.775Z,10.97
2018-10-01T08:28:30.675Z,16.73
2018-10-01T08:30:58.538Z,13.77
2018-10-01T08:33:26.416Z,14.57
2018-10-01T08:35:54.289Z,14.50
2018-10-01T08:38:22.243Z,13.90
2018-10-01T08:40:50.051Z,12.27
2018-10-01T08:43:17.919Z,9.13
2018-10-01T08:45:45.803Z,14.20
2018-10-01T08:48:14.783Z,10.53
2018-10-01T08:52:49.022Z,9.73
2018-10-01T08:55:16.879Z,8.37
2018-10-01T08:57:44.743Z,11.60
2018-10-01T09:00:12.682Z,9.00
2018-10-01T09:02:40.604Z,9.07
2018-10-01T09:05:08.433Z,4.67
2018-10-01T09:07:36.367Z,6.67
2018-10-01T09:10:04.300Z,9.53
2018-10-01T09:12:32.605Z,7.80
2018-10-01T09:15:00.520Z,5.27
2018-10-01T09:17:28.435Z,4.73
2018-10-01T09:19:56.318Z,6.93
2018-10-01T09:22:24.188Z,6.17
2018-10-01T09:24:52.075Z,4.87
2018-10-01T09:27:19.942Z,6.63
2018-10-01T09:29:47.807Z,5.83
2018-10-01T09:32:15.769Z,9.53
2018-10-01T09:34:43.555Z,5.57
2018-10-01T09:37:11.415Z,7.17
2018-10-01T09:39:39.296Z,7.43
2018-10-01T09:42:07.215Z,7.53
2018-10-01T09:44:35.125Z,5.97
2018-10-01T09:47:02.927Z,5.90
2018-10-01T09:49:30.812Z,8.73
2018-10-01T09:51:59.301Z,9.30
2018-10-01T09:54:27.191Z,8.67
2018-10-01T09:56:55.091Z,5.57
2018-10-01T09:59:22.955Z,7.27
2018-10-01T10:01:50.871Z,7.90
2018-10-01T10:04:18.776Z,10.30
2018-10-01T10:06:46.642Z,7.40
2018-10-01T10:09:14.516Z,9.03
2018-10-01T10:11:42.376Z,7.80
2018-10-01T10:14:10.343Z,10.07
2018-10-01T10:16:38.184Z,8.10
2018-10-01T10:19:06.011Z,5.77
2018-10-01T10:21:33.922Z,8.47
2018-10-01T10:24:01.798Z,7.73
2018-10-01T10:26:29.856Z,8.20
2018-10-01T10:28:57.811Z,8.47
2018-10-01T10:31:25.683Z,8.83
2018-10-01T10:33:53.608Z,6.07
2018-10-01T10:36:21.483Z,5.57
2018-10-01T10:38:49.371Z,6.63
2018-10-01T10:41:17.226Z,6.03
2018-10-01T10:43:45.142Z,5.50
2018-10-01T10:46:13.007Z,6.93
2018-10-01T10:48:40.871Z,6.17
2018-10-01T10:51:08.735Z,6.57
2018-10-01T10:53:36.600Z,5.47
2018-10-01T10:56:04.656Z,3.53
2018-10-01T10:58:32.601Z,3.67
2018-10-01T11:01:00.483Z,2.27
2018-10-01T11:03:28.351Z,3.93
2018-10-01T11:05:56.226Z,6.73
2018-10-01T11:08:24.162Z,2.33
2018-10-01T11:10:51.959Z,2.57
2018-10-01T11:13:19.839Z,3.23
2018-10-01T11:15:47.709Z,2.10
2018-10-01T11:18:15.624Z,3.13
2018-10-01T11:20:43.544Z,4.47
2018-10-01T11:23:11.351Z,7.50
2018-10-01T11:25:39.228Z,2.07
2018-10-01T11:28:07.083Z,3.60
2018-10-01T11:30:34.956Z,2.80
2018-10-01T11:33:02.845Z,2.30
2018-10-01T11:35:30.728Z,4.10
2018-10-01T11:37:58.614Z,3.87
2018-10-01T11:40:26.521Z,2.93
2018-10-01T11:42:54.370Z,4.67
2018-10-01T11:45:22.337Z,2.20
2018-10-01T11:47:50.099Z,4.43
2018-10-01T11:50:17.967Z,9.53
2018-10-01T11:52:45.847Z,6.00
2018-10-01T11:55:13.714Z,3.10
2018-10-01T11:57:41.659Z,3.77
2018-10-01T12:00:09.668Z,2.70
2018-10-01T12:02:37.572Z,2.57
2018-10-01T12:05:05.778Z,2.00
2018-10-01T12:07:33.647Z,4.17
2018-10-01T12:10:01.562Z,1.53
2018-10-01T12:12:29.450Z,4.40
2018-10-01T12:14:57.331Z,4.03
2018-10-01T12:17:25.251Z,6.33
2018-10-01T12:19:53.108Z,2.83
2018-10-01T12:22:21.001Z,3.30
2018-10-01T12:24:48.906Z,1.40
2018-10-01T12:27:16.819Z,3.93
2018-10-01T12:29:44.671Z,2.00
2018-10-01T12:32:12.538Z,1.73
2018-10-01T12:34:40.598Z,2.33
2018-10-01T12:37:08.463Z,1.00
2018-10-01T12:39:36.412Z,4.60
2018-10-01T12:42:04.307Z,4.00
2018-10-01T12:44:32.214Z,2.97
2018-10-01T12:47:00.111Z,4.97
2018-10-01T12:49:27.975Z,4.33
2018-10-01T12:51:56.381Z,1.53
2018-10-01T12:54:24.239Z,1.20
2018-10-01T12:56:52.106Z,4.63
2018-10-01T12:59:19.991Z,0.73
2018-10-01T13:04:34.487Z,2.17
2018-10-01T13:07:02.590Z,1.57
2018-10-01T13:09:30.455Z,4.93
2018-10-01T13:11:58.433Z,3.60
2018-10-01T13:14:26.267Z,3.73
2018-10-01T13:16:54.134Z,1.13
2018-10-01T13:19:22.035Z,2.23
2018-10-01T13:21:49.970Z,4.83
2018-10-01T13:24:18.680Z,3.40
2018-10-01T13:26:46.482Z,6.40
2018-10-01T13:29:14.351Z,3.90
2018-10-01T13:31:42.215Z,2.07
2018-10-01T13:34:10.096Z,1.93
2018-10-01T13:36:38.041Z,2.63
2018-10-01T13:39:06.888Z,1.93
2018-10-01T13:41:34.754Z,2.30
2018-10-01T13:44:02.619Z,6.23
2018-10-01T13:46:30.475Z,1.23
2018-10-01T13:48:58.374Z,2.30
2018-10-01T13:51:27.966Z,1.50
2018-10-01T13:53:55.841Z,2.43
2018-10-01T13:56:23.683Z,1.70
2018-10-01T13:58:51.549Z,4.63
2018-10-01T14:01:19.470Z,3.17
2018-10-01T14:03:47.302Z,3.17
2018-10-01T14:06:15.206Z,1.63
2018-10-01T14:08:43.040Z,5.33
2018-10-01T14:11:10.891Z,1.03
2018-10-01T14:13:38.946Z,4.37
2018-10-01T14:16:06.787Z,2.07
2018-10-01T14:18:34.646Z,2.57
2018-10-01T14:21:02.558Z,1.17
2018-10-01T14:23:30.414Z,1.03
2018-10-01T14:25:58.307Z,2.63
2018-10-01T14:28:26.174Z,2.10
2018-10-01T14:30:54.062Z,1.43
2018-10-01T14:33:21.911Z,1.77
2018-10-01T14:35:49.758Z,2.43
2018-10-01T14:38:17.635Z,2.13
2018-10-01T14:40:45.486Z,1.53
2018-10-01T14:43:13.355Z,1.70
2018-10-01T14:45:41.206Z,2.57
2018-10-01T14:48:09.196Z,4.23
2018-10-01T14:50:37.103Z,0.97
2018-10-01T14:53:04.973Z,3.37
2018-10-01T14:55:32.835Z,2.40
2018-10-01T14:58:00.743Z,1.67
2018-10-01T15:00:28.818Z,1.50
2018-10-01T15:02:56.490Z,3.07
2018-10-01T15:05:24.367Z,4.33
2018-10-01T15:07:52.243Z,3.30
2018-10-01T15:10:20.091Z,4.53
2018-10-01T15:12:47.994Z,2.53
2018-10-01T15:15:15.858Z,0.97
2018-10-01T15:17:46.248Z,1.83
2018-10-01T15:20:14.235Z,1.93
2018-10-01T15:22:42.109Z,2.30
2018-10-01T15:25:09.996Z,0.93
2018-10-01T15:27:37.864Z,1.63
2018-10-01T15:30:06.115Z,1.47
2018-10-01T15:32:33.931Z,2.20
2018-10-01T15:35:01.806Z,3.37
2018-10-01T15:37:30.478Z,3.47
2018-10-01T15:39:58.354Z,1.20
2018-10-01T15:42:26.214Z,1.77
2018-10-01T15:44:54.125Z,2.20
2018-10-01T15:47:22.091Z,0.67
2018-10-01T15:49:50.023Z,1.00
2018-10-01T15:52:17.882Z,1.60
2018-10-01T15:54:45.971Z,1.43
2018-10-01T15:57:13.843Z,2.30
2018-10-01T15:59:41.978Z,1.40
2018-10-01T16:02:09.882Z,1.93
2018-10-01T16:04:37.775Z,2.07
2018-10-01T16:07:05.657Z,1.80
2018-10-01T16:09:33.562Z,1.30
2018-10-01T16:12:01.427Z,2.73
2018-10-01T16:14:29.343Z,2.23
2018-10-01T16:16:57.216Z,3.00
2018-10-01T16:19:25.158Z,1.60
2018-10-01T16:21:53.006Z,3.43
2018-10-01T16:24:20.870Z,5.90
2018-10-01T16:26:49.267Z,5.10
2018-10-01T16:29:17.123Z,2.27
2018-10-01T16:31:44.980Z,0.77
2018-10-01T16:34:12.859Z,2.47
2018-10-01T16:36:40.715Z,3.53
2018-10-01T16:39:09.567Z,2.90
2018-10-01T16:41:37.584Z,1.77
2018-10-01T16:44:05.443Z,2.90
2018-10-01T16:46:33.379Z,3.37
2018-10-01T16:49:01.275Z,1.30
2018-10-01T16:51:29.901Z,1.27
2018-10-01T16:53:57.948Z,3.60
2018-10-01T16:56:25.825Z,1.70
2018-10-01T16:58:53.723Z,3.57
2018-10-01T17:01:21.771Z,3.30
2018-10-01T17:03:49.654Z,1.47
2018-10-01T17:06:17.578Z,2.97
2018-10-01T17:08:46.979Z,2.80
2018-10-01T17:11:14.869Z,2.30
2018-10-01T17:13:42.751Z,3.23
2018-10-01T17:16:10.664Z,3.83
2018-10-01T17:18:38.521Z,5.03
2018-10-01T17:21:06.389Z,4.83
2018-10-01T17:23:34.260Z,4.33
2018-10-01T17:26:02.220Z,4.00
2018-10-01T17:28:30.102Z,3.63
2018-10-01T17:30:58.106Z,4.60
2018-10-01T17:33:26.028Z,4.70
2018-10-01T17:35:53.896Z,2.93
2018-10-01T17:38:21.786Z,3.37
2018-10-01T17:40:49.639Z,4.30
2018-10-01T17:43:17.619Z,2.57
2018-10-01T17:45:45.754Z,5.17
2018-10-01T17:48:13.753Z,4.17
2018-10-01T17:50:41.722Z,2.33
2018-10-01T17:53:09.671Z,6.13
2018-10-01T17:55:37.523Z,2.93
2018-10-01T17:58:05.467Z,5.07
2018-10-01T18:00:33.391Z,2.73
2018-10-01T18:03:01.495Z,4.87
2018-10-01T18:05:29.450Z,6.87
2018-10-01T18:07:57.323Z,4.53
2018-10-01T18:10:25.272Z,2.87
2018-10-01T18:12:53.243Z,4.37
2018-10-01T18:15:21.219Z,4.20
2018-10-01T18:17:49.237Z,3.80
2018-10-01T18:20:17.144Z,2.33
2018-10-01T18:22:45.115Z,3.63
2018-10-01T18:25:13.067Z,4.53
2018-10-01T18:27:40.967Z,4.07
2018-10-01T18:30:09.077Z,2.63
2018-10-01T18:32:36.970Z,4.37
2018-10-01T18:35:05.171Z,5.83
2018-10-01T18:37:33.223Z,3.40
2018-10-01T18:40:01.104Z,2.97
2018-10-01T18:42:29.122Z,1.80
2018-10-01T18:44:57.062Z,2.53
2018-10-01T18:47:25.012Z,4.97
2018-10-01T18:49:52.986Z,5.17
2018-10-01T18:52:20.946Z,4.57
2018-10-01T18:54:48.820Z,3.57
2018-10-01T18:57:17.006Z,6.17
2018-10-01T18:59:45.050Z,3.00
2018-10-01T19:02:12.977Z,3.07
2018-10-01T19:04:40.886Z,6.60
2018-10-01T19:07:08.754Z,2.33
2018-10-01T19:09:36.634Z,3.77
2018-10-01T19:14:52.643Z,2.70
2018-10-01T19:17:20.479Z,4.30
2018-10-01T19:19:48.407Z,3.97
2018-10-01T19:22:16.348Z,4.77
2018-10-01T19:24:44.436Z,1.50
2018-10-01T19:27:12.628Z,2.73
2018-10-01T19:29:40.539Z,3.87
2018-10-01T19:32:08.451Z,6.90
2018-10-01T19:34:37.550Z,5.70
2018-10-01T19:37:05.984Z,6.43
2018-10-01T19:39:33.904Z,6.60
2018-10-01T19:42:01.904Z,3.73
2018-10-01T19:44:30.844Z,6.20
2018-10-01T19:46:58.847Z,3.30
2018-10-01T19:49:27.163Z,5.57
2018-10-01T19:51:56.600Z,6.30
2018-10-01T19:54:24.634Z,4.10
2018-10-01T19:56:53.661Z,3.70
2018-10-01T19:59:21.690Z,10.67
2018-10-01T20:01:49.604Z,4.87
2018-10-01T20:04:17.649Z,7.03
2018-10-01T20:06:45.573Z,4.83
2018-10-01T20:09:13.853Z,3.40
2018-10-01T20:11:43.267Z,4.37
2018-10-01T20:14:11.170Z,6.23
2018-10-01T20:16:39.071Z,4.93
2018-10-01T20:19:07.061Z,8.73
2018-10-01T20:21:34.989Z,3.73
2018-10-01T20:24:03.031Z,4.63
2018-10-01T20:26:30.966Z,4.00
2018-10-01T20:28:58.838Z,8.20
2018-10-01T20:31:26.673Z,6.23
2018-10-01T20:33:54.634Z,4.93
2018-10-01T20:36:23.760Z,4.37
2018-10-01T20:38:51.635Z,6.73
2018-10-01T20:41:20.636Z,6.13
2018-10-01T20:43:48.619Z,8.87
2018-10-01T20:46:16.560Z,5.50
2018-10-01T20:48:44.434Z,12.90
2018-10-01T20:51:12.387Z,4.80
2018-10-01T20:53:40.360Z,7.00
2018-10-01T20:56:08.268Z,6.73
2018-10-01T20:58:36.096Z,4.67
2018-10-01T21:01:03.968Z,6.57
2018-10-01T21:03:32.010Z,6.57
2018-10-01T21:05:59.883Z,4.43
2018-10-01T21:08:27.953Z,5.77
2018-10-01T21:10:55.855Z,7.10
2018-10-01T21:13:23.774Z,5.17
2018-10-01T21:15:51.644Z,4.87
2018-10-01T21:18:19.570Z,8.40
2018-10-01T21:20:47.555Z,5.13
2018-10-01T21:23:15.571Z,5.97
2018-10-01T21:25:43.507Z,4.73
2018-10-01T21:28:11.382Z,2.67
2018-10-01T21:30:41.483Z,5.27
2018-10-01T21:33:09.423Z,6.83
2018-10-01T21:35:37.364Z,5.93
2018-10-01T21:38:05.334Z,3.10
2018-10-01T21:40:33.270Z,4.87
2018-10-01T21:43:02.612Z,3.73
2018-10-01T21:45:30.551Z,12.70
2018-10-01T21:47:58.438Z,5.60
2018-10-01T21:50:26.379Z,7.13
2018-10-01T21:52:54.340Z,8.07
2018-10-01T21:55:22.277Z,5.80
2018-10-01T21:57:50.179Z,6.37
2018-10-01T22:00:18.515Z,7.00
2018-10-01T22:02:46.460Z,8.40
2018-10-01T22:05:14.407Z,9.50
2018-10-01T22:07:42.999Z,4.63
2018-10-01T22:10:10.966Z,6.53
2018-10-01T22:12:39.970Z,9.20
2018-10-01T22:15:07.918Z,4.80
2018-10-01T22:17:36.981Z,5.67
2018-10-01T22:20:05.973Z,5.33
2018-10-01T22:22:34.915Z,4.80
2018-10-01T22:25:03.683Z,4.23
2018-10-01T22:27:32.567Z,7.87
2018-10-01T22:30:00.675Z,5.60
2018-10-01T22:32:28.631Z,7.10
2018-10-01T22:34:57.595Z,7.37
2018-10-01T22:37:25.571Z,9.47
2018-10-01T22:39:53.534Z,5.63
2018-10-01T22:42:21.531Z,6.00
2018-10-01T22:44:49.480Z,5.53
2018-10-01T22:47:17.459Z,4.43
2018-10-01T22:49:45.426Z,7.07
2018-10-01T22:52:13.382Z,11.57
2018-10-01T22:54:41.412Z,7.00
2018-10-01T22:57:09.287Z,3.47
2018-10-01T22:59:37.397Z,5.87
2018-10-01T23:02:05.383Z,7.80
2018-10-01T23:04:33.326Z,7.17
2018-10-01T23:07:01.191Z,5.87
2018-10-01T23:09:30.856Z,9.90
2018-10-01T23:11:58.769Z,8.90
2018-10-01T23:14:28.229Z,10.87
2018-10-01T23:16:56.146Z,6.47
2018-10-01T23:19:24.111Z,10.80
2018-10-01T23:21:52.014Z,8.27
2018-10-01T23:24:19.942Z,11.47
2018-10-01T23:26:47.962Z,11.07
2018-10-01T23:29:16.187Z,13.50
2018-10-01T23:31:44.166Z,12.43
2018-10-01T23:34:13.178Z,11.60
2018-10-01T23:36:41.071Z,10.70
2018-10-01T23:39:08.968Z,10.03
2018-10-01T23:41:36.842Z,9.93
2018-10-01T23:44:05.933Z,15.60
2018-10-01T23:46:33.883Z,10.87
2018-10-01T23:49:01.805Z,10.90
2018-10-01T23:51:31.704Z,7.90
2018-10-01T23:53:59.742Z,9.07
2018-10-01T23:56:27.621Z,12.73
2018-10-01T23:58:55.790Z,10.73
